Time;durP1;ratioP1;P1;durP2;ratioP2;P2;SDS_P1;SDS_P2;PMS_P1;PMS_P2;Temp;Humidity;BMP_temperature;BMP_pressure;BME280_temperature;BME280_humidity;BME280_pressure;Samples;Min_cycle;Max_cycle;Signal;HPM_P1;HPM_P2
2023/12/17 00:02:07;;;;;;;101.68;42.80;;;;;;;9.65;100.00;103818.56;5094574;27;20513;-76
2023/12/17 00:04:32;;;;;;;78.50;36.13;;;;;;;9.63;100.00;103820.34;5099199;27;20874;-76
2023/12/17 00:06:59;;;;;;;80.60;36.22;;;;;;;9.60;100.00;103821.28;5112075;27;20728;-76
2023/12/17 00:09:27;;;;;;;80.85;36.40;;;;;;;9.68;100.00;103831.81;5108771;27;20051;-75
2023/12/17 00:11:52;;;;;;;78.90;36.15;;;;;;;9.68;100.00;103839.81;5119610;27;20092;-75
2023/12/17 00:14:18;;;;;;;84.72;37.13;;;;;;;9.73;100.00;103838.88;5119153;27;20664;-75
2023/12/17 00:16:50;;;;;;;97.43;39.17;;;;;;;9.75;100.00;103830.88;5104836;27;20028;-76
2023/12/17 00:19:15;;;;;;;87.05;37.72;;;;;;;9.74;100.00;103826.41;5096871;27;20039;-76
2023/12/17 00:21:41;;;;;;;77.85;36.90;;;;;;;9.71;100.00;103824.69;5099372;27;20035;-74
2023/12/17 00:24:06;;;;;;;76.40;35.22;;;;;;;9.75;100.00;103818.44;5115559;27;20081;-76
2023/12/17 00:26:35;;;;;;;81.00;36.97;;;;;;;9.70;100.00;103814.94;5103501;27;20042;-76
2023/12/17 00:29:07;;;;;;;89.78;38.97;;;;;;;9.74;100.00;103808.69;5111200;27;20150;-75
2023/12/17 00:31:33;;;;;;;97.43;42.70;;;;;;;9.69;100.00;103806.94;5098041;27;20032;-76
2023/12/17 00:34:11;;;;;;;107.18;42.25;;;;;;;9.73;100.00;103806.00;5115353;27;20836;-75
2023/12/17 00:36:36;;;;;;;103.65;42.38;;;;;;;9.77;100.00;103799.75;5103143;27;20031;-76
2023/12/17 00:39:08;;;;;;;83.45;36.83;;;;;;;9.74;100.00;103802.44;5090082;27;20032;-75
2023/12/17 00:41:34;;;;;;;74.78;33.20;;;;;;;9.73;100.00;103800.69;5111900;27;20108;-77
2023/12/17 00:44:08;;;;;;;74.93;34.13;;;;;;;9.73;100.00;103796.22;5091933;27;20117;-76
2023/12/17 00:46:33;;;;;;;70.93;31.05;;;;;;;9.75;100.00;103796.22;5096645;27;20119;-75
2023/12/17 00:49:09;;;;;;;61.38;30.48;;;;;;;9.75;100.00;103796.22;5099821;27;20039;-76
2023/12/17 00:51:39;;;;;;;68.07;30.65;;;;;;;9.79;100.00;103792.63;5115153;27;20283;-76
2023/12/17 00:54:05;;;;;;;55.15;26.52;;;;;;;9.73;100.00;103790.03;5112817;27;20046;-76
2023/12/17 00:56:37;;;;;;;49.28;24.33;;;;;;;9.78;100.00;103797.06;5092389;27;20148;-75
2023/12/17 00:59:05;;;;;;;48.22;22.33;;;;;;;9.80;100.00;103802.38;5115405;27;20138;-76
2023/12/17 01:01:38;;;;;;;43.13;20.67;;;;;;;9.79;100.00;103789.97;5089227;27;20043;-76
2023/12/17 01:04:11;;;;;;;38.50;18.27;;;;;;;9.78;100.00;103790.84;5108285;27;20032;-75
2023/12/17 01:06:39;;;;;;;32.92;13.68;;;;;;;9.80;100.00;103787.28;5105514;27;20610;-75
2023/12/17 01:09:05;;;;;;;27.70;13.57;;;;;;;9.76;100.00;103779.34;5102751;27;20062;-76
2023/12/17 01:11:34;;;;;;;25.85;14.32;;;;;;;9.83;100.00;103784.56;5105364;27;20036;-75
2023/12/17 01:14:07;;;;;;;28.55;13.80;;;;;;;9.87;100.00;103774.75;5110583;27;20036;-75
2023/12/17 01:16:33;;;;;;;29.80;15.50;;;;;;;9.76;100.00;103769.56;5108323;27;20047;-76
2023/12/17 01:19:08;;;;;;;34.45;16.27;;;;;;;9.83;100.00;103770.34;5098393;27;20044;-75
2023/12/17 01:21:38;;;;;;;35.08;16.75;;;;;;;9.75;100.00;103762.47;5100844;27;20031;-76
2023/12/17 01:24:07;;;;;;;24.38;14.18;;;;;;;9.75;100.00;103766.91;5100449;27;20036;-76
2023/12/17 01:26:38;;;;;;;24.70;13.88;;;;;;;9.73;100.00;103768.69;5089156;27;20933;-75
2023/12/17 01:29:07;;;;;;;25.00;12.57;;;;;;;9.78;100.00;103759.75;5107443;27;20884;-76
2023/12/17 01:31:38;;;;;;;21.70;11.80;;;;;;;9.75;100.00;103757.13;5104977;27;20035;-76
2023/12/17 01:34:07;;;;;;;21.95;12.35;;;;;;;9.71;100.00;103741.22;5107265;27;20047;-76
2023/12/17 01:36:35;;;;;;;27.95;14.88;;;;;;;9.70;100.00;103743.00;5097020;27;20496;-76
2023/12/17 01:39:10;;;;;;;19.70;11.73;;;;;;;9.66;100.00;103741.25;5084126;27;20036;-76
2023/12/17 01:41:36;;;;;;;20.63;12.02;;;;;;;9.72;100.00;103732.31;5101370;27;20040;-75
2023/12/17 01:44:11;;;;;;;18.73;11.43;;;;;;;9.75;100.00;103734.94;5082229;27;20040;-76
2023/12/17 01:46:39;;;;;;;22.92;11.85;;;;;;;9.74;100.00;103734.06;5105479;27;20032;-76
2023/12/17 01:49:09;;;;;;;20.27;11.35;;;;;;;9.79;100.00;103726.88;5099993;27;20044;-77
2023/12/17 01:51:39;;;;;;;19.63;10.73;;;;;;;9.73;100.00;103731.41;5111590;27;20979;-76
2023/12/17 01:54:08;;;;;;;21.00;11.93;;;;;;;9.69;100.00;103729.66;5111629;27;20062;-76
2023/12/17 01:56:39;;;;;;;21.08;10.93;;;;;;;9.72;100.00;103726.97;5092145;27;20093;-76
2023/12/17 01:59:08;;;;;;;17.05;10.32;;;;;;;9.73;100.00;103728.72;5070078;27;20127;-75
2023/12/17 02:01:33;;;;;;;15.52;8.75;;;;;;;9.69;100.00;103727.91;5109600;27;20063;-76
2023/12/17 02:03:59;;;;;;;13.95;9.35;;;;;;;9.74;100.00;103728.72;5101381;27;20043;-76
2023/12/17 02:06:43;;;;;;;19.33;9.55;;;;;;;9.76;100.00;103710.94;5103868;27;20119;-75
2023/12/17 02:09:08;;;;;;;13.30;8.35;;;;;;;9.73;100.00;103710.97;5106184;27;20051;-75
2023/12/17 02:11:34;;;;;;;18.83;9.13;;;;;;;9.75;100.00;103710.97;5107286;27;20035;-76
2023/12/17 02:14:04;;;;;;;15.80;8.18;;;;;;;9.70;100.00;103713.69;5100406;27;20133;-76
2023/12/17 02:16:38;;;;;;;15.32;8.38;;;;;;;9.71;100.00;103695.91;5107295;27;20028;-75
2023/12/17 02:19:09;;;;;;;14.63;8.15;;;;;;;9.64;100.00;103694.22;5105885;27;20124;-75
2023/12/17 02:21:40;;;;;;;12.65;7.38;;;;;;;9.72;100.00;103687.88;5108756;27;20109;-78
2023/12/17 02:24:06;;;;;;;15.50;7.70;;;;;;;9.74;100.00;103683.44;5093244;27;20089;-77
2023/12/17 02:26:39;;;;;;;11.60;8.05;;;;;;;9.76;100.00;103686.06;5108941;27;20503;-76
2023/12/17 02:29:08;;;;;;;13.75;8.25;;;;;;;9.73;100.00;103681.66;5101733;27;20044;-75
2023/12/17 02:31:34;;;;;;;16.92;9.30;;;;;;;9.77;100.00;103685.16;5088571;27;20061;-75
2023/12/17 02:34:08;;;;;;;18.55;10.43;;;;;;;9.77;100.00;103686.03;5088634;27;20116;-75
2023/12/17 02:36:38;;;;;;;18.55;9.50;;;;;;;9.81;100.00;103695.75;5097931;27;20040;-75
2023/12/17 02:39:06;;;;;;;16.70;9.40;;;;;;;9.78;100.00;103690.47;5105669;27;20028;-77
2023/12/17 02:41:38;;;;;;;19.88;10.93;;;;;;;9.82;100.00;103692.19;5090270;27;20039;-76
2023/12/17 02:44:06;;;;;;;21.60;10.60;;;;;;;9.85;100.00;103696.59;5110452;27;20062;-77
2023/12/17 02:46:38;;;;;;;26.02;11.63;;;;;;;9.87;100.00;103702.78;5103865;27;20077;-78
2023/12/17 02:49:11;;;;;;;21.45;11.10;;;;;;;9.84;100.00;103703.72;5098661;27;20040;-75
2023/12/17 02:51:36;;;;;;;20.20;11.23;;;;;;;9.92;100.00;103711.59;5089935;27;20035;-76
2023/12/17 02:54:02;;;;;;;23.55;11.57;;;;;;;9.88;100.00;103704.53;5095079;27;20028;-76
2023/12/17 02:56:28;;;;;;;27.13;12.40;;;;;;;9.84;100.00;103714.38;5100363;27;20549;-76
2023/12/17 02:59:08;;;;;;;22.52;12.05;;;;;;;9.87;100.00;103697.44;5100901;27;20074;-75
2023/12/17 03:01:33;;;;;;;18.85;10.18;;;;;;;9.82;100.00;103700.19;5106202;27;20043;-75
2023/12/17 03:03:59;;;;;;;21.83;11.68;;;;;;;9.86;100.00;103696.56;5091488;27;20028;-76
2023/12/17 03:06:24;;;;;;;22.23;11.45;;;;;;;9.90;100.00;103689.41;5092676;27;20047;-77
2023/12/17 03:08:50;;;;;;;16.88;9.40;;;;;;;9.83;100.00;103691.28;5092120;27;20103;-77
2023/12/17 03:11:16;;;;;;;18.48;10.98;;;;;;;9.90;100.00;103685.88;5104145;27;20796;-77
2023/12/17 03:13:41;;;;;;;24.27;12.25;;;;;;;9.91;100.00;103675.19;5110290;27;20024;-77
2023/12/17 03:16:08;;;;;;;24.77;12.32;;;;;;;9.85;100.00;103681.50;5099164;27;20135;-77
2023/12/17 03:18:35;;;;;;;21.60;11.52;;;;;;;9.86;100.00;103669.03;5080698;27;20058;-77
2023/12/17 03:21:04;;;;;;;23.38;12.35;;;;;;;9.90;100.00;103673.44;5101228;27;20064;-78
2023/12/17 03:23:36;;;;;;;18.75;11.10;;;;;;;9.87;100.00;103670.78;5107000;27;20039;-77
2023/12/17 03:26:03;;;;;;;20.65;10.82;;;;;;;9.85;100.00;103665.50;5100252;27;20109;-77
2023/12/17 03:28:32;;;;;;;14.38;9.65;;;;;;;9.83;100.00;103664.63;5109267;27;20039;-77
2023/12/17 03:30:58;;;;;;;25.83;10.63;;;;;;;9.82;100.00;103662.00;5090451;27;20533;-77
2023/12/17 03:33:23;;;;;;;25.80;8.98;;;;;;;9.83;100.00;103658.41;5100774;27;20138;-77
2023/12/17 03:35:49;;;;;;;24.35;8.70;;;;;;;9.79;100.00;103649.59;5095594;27;20105;-78
2023/12/17 03:38:14;;;;;;;20.40;8.32;;;;;;;9.84;100.00;103646.88;5108909;27;20123;-76
2023/12/17 03:40:40;;;;;;;16.27;7.38;;;;;;;9.84;100.00;103629.09;5105558;27;20119;-77
2023/12/17 03:43:07;;;;;;;21.23;8.45;;;;;;;9.86;100.00;103623.72;5102800;27;20531;-77
2023/12/17 03:45:36;;;;;;;19.52;8.57;;;;;;;9.85;100.00;103624.66;5113149;27;20032;-77
2023/12/17 03:48:03;;;;;;;18.35;9.25;;;;;;;9.74;100.00;103626.56;5111700;27;20028;-77
2023/12/17 03:50:32;;;;;;;19.35;9.88;;;;;;;9.84;100.00;103641.53;5086183;27;20059;-77
2023/12/17 03:52:58;;;;;;;22.80;10.85;;;;;;;9.75;100.00;103639.00;5083970;27;20049;-77
2023/12/17 03:55:24;;;;;;;22.75;10.45;;;;;;;9.72;100.00;103633.72;5082794;28;20028;-77
2023/12/17 03:57:55;;;;;;;21.00;11.82;;;;;;;9.77;100.00;103647.84;5082899;28;20562;-77
2023/12/17 04:00:21;;;;;;;24.58;11.60;;;;;;;9.70;100.00;103638.19;5062079;28;20036;-77
2023/12/17 04:02:49;;;;;;;25.35;12.23;;;;;;;9.75;100.00;103642.56;5082992;28;20037;-77
2023/12/17 04:05:14;;;;;;;27.77;12.30;;;;;;;9.74;100.00;103643.47;5074141;28;20055;-77
2023/12/17 04:07:40;;;;;;;27.25;13.10;;;;;;;9.75;100.00;103639.00;5066128;28;20087;-77
2023/12/17 04:10:06;;;;;;;29.08;13.43;;;;;;;9.79;100.00;103644.28;5080825;28;20041;-78
2023/12/17 04:12:37;;;;;;;24.95;12.38;;;;;;;9.81;100.00;103646.91;5085161;28;20041;-77
2023/12/17 04:15:08;;;;;;;26.20;11.95;;;;;;;9.94;100.00;103635.16;5084944;28;20071;-77
2023/12/17 04:17:33;;;;;;;24.98;10.93;;;;;;;9.89;100.00;103636.13;5090298;28;20153;-76
2023/12/17 04:19:59;;;;;;;26.13;12.52;;;;;;;9.89;100.00;103626.38;5090388;28;20038;-77
2023/12/17 04:22:27;;;;;;;27.35;12.90;;;;;;;9.92;100.00;103620.97;5094865;28;20028;-77
2023/12/17 04:24:53;;;;;;;25.27;12.18;;;;;;;9.87;100.00;103617.50;5067968;28;20142;-77
2023/12/17 04:27:22;;;;;;;25.77;12.40;;;;;;;9.81;100.00;103622.94;5076297;28;20127;-77
2023/12/17 04:29:54;;;;;;;28.73;13.45;;;;;;;9.86;100.00;103629.06;5089123;28;20061;-77
2023/12/17 04:32:19;;;;;;;28.55;13.65;;;;;;;9.91;100.00;103637.88;5089424;28;20036;-77
2023/12/17 04:34:45;;;;;;;28.20;13.63;;;;;;;9.85;100.00;103641.50;5085826;28;20071;-76
2023/12/17 04:37:10;;;;;;;30.38;13.60;;;;;;;9.90;100.00;103659.22;5076244;28;20040;-76
2023/12/17 04:39:36;;;;;;;34.35;15.75;;;;;;;9.83;100.00;103648.63;5085256;28;20032;-77
2023/12/17 04:42:07;;;;;;;25.55;13.63;;;;;;;9.77;100.00;103648.72;5089793;28;20021;-77
2023/12/17 04:44:41;;;;;;;23.80;11.40;;;;;;;9.76;100.00;103643.44;5067058;28;20025;-75
2023/12/17 04:47:15;;;;;;;19.60;11.52;;;;;;;9.72;100.00;103647.03;5083241;28;20116;-76
2023/12/17 04:49:41;;;;;;;21.25;11.55;;;;;;;9.74;100.00;103638.13;5085697;28;20594;-74
2023/12/17 04:52:06;;;;;;;20.73;11.50;;;;;;;9.72;100.00;103636.38;5080951;28;20176;-75
2023/12/17 04:54:38;;;;;;;21.85;12.50;;;;;;;9.83;100.00;103634.44;5090502;27;20047;-75
2023/12/17 04:57:05;;;;;;;21.80;11.63;;;;;;;9.84;100.00;103626.44;5106534;27;20032;-76
2023/12/17 04:59:34;;;;;;;24.05;13.20;;;;;;;9.74;100.00;103610.56;5099790;27;20142;-77
2023/12/17 05:02:02;;;;;;;24.73;14.38;;;;;;;9.78;100.00;103618.50;5118337;27;20571;-77
2023/12/17 05:04:39;;;;;;;30.15;14.35;;;;;;;9.82;100.00;103612.22;5099314;27;20101;-76
2023/12/17 05:07:08;;;;;;;34.63;16.40;;;;;;;9.77;100.00;103622.09;5096486;27;20042;-76
2023/12/17 05:09:33;;;;;;;29.42;15.48;;;;;;;9.82;100.00;103619.34;5114563;27;20039;-76
2023/12/17 05:12:02;;;;;;;38.70;17.27;;;;;;;9.81;100.00;103622.94;5105669;27;20439;-77
2023/12/17 05:14:34;;;;;;;39.38;16.48;;;;;;;9.81;100.00;103613.16;5096498;28;20059;-76
2023/12/17 05:17:09;;;;;;;38.03;17.23;;;;;;;9.80;100.00;103621.16;5091780;27;20036;-77
2023/12/17 05:19:38;;;;;;;35.72;17.02;;;;;;;9.77;100.00;103616.75;5098838;27;20035;-76
2023/12/17 05:22:11;;;;;;;33.40;16.70;;;;;;;9.83;100.00;103629.97;5078979;27;20085;-77
2023/12/17 05:24:36;;;;;;;37.80;16.67;;;;;;;9.81;100.00;103621.13;5117894;27;20031;-77
2023/12/17 05:27:08;;;;;;;38.38;18.35;;;;;;;9.81;100.00;103622.94;5080237;28;20041;-77
2023/12/17 05:29:34;;;;;;;30.70;16.90;;;;;;;9.83;100.00;103618.44;5113612;27;20036;-77
2023/12/17 05:32:10;;;;;;;35.00;16.48;;;;;;;9.82;100.00;103612.22;5095857;27;20039;-76
2023/12/17 05:34:39;;;;;;;42.33;18.70;;;;;;;9.85;100.00;103620.19;5105719;27;20076;-77
2023/12/17 05:37:04;;;;;;;38.85;18.17;;;;;;;9.84;100.00;103613.09;5099967;27;20055;-77
2023/12/17 05:39:42;;;;;;;40.30;18.77;;;;;;;9.84;100.00;103613.09;5092280;27;20390;-77
2023/12/17 05:42:08;;;;;;;39.35;19.45;;;;;;;9.82;100.00;103608.69;5104336;27;20019;-77
2023/12/17 05:44:33;;;;;;;40.00;19.83;;;;;;;9.84;100.00;103605.13;5100035;27;20043;-77
2023/12/17 05:47:06;;;;;;;39.80;20.58;;;;;;;9.91;100.00;103595.22;5098148;27;20660;-77
2023/12/17 05:49:44;;;;;;;44.28;21.02;;;;;;;9.91;100.00;103595.22;5110896;27;20040;-78
2023/12/17 05:52:11;;;;;;;40.53;20.02;;;;;;;9.99;100.00;103592.41;5073498;27;20491;-77
2023/12/17 05:54:38;;;;;;;43.53;20.20;;;;;;;9.93;100.00;103593.41;5090781;28;20131;-77
2023/12/17 05:57:06;;;;;;;45.67;19.55;;;;;;;10.00;100.00;103594.19;5109030;27;20085;-78
2023/12/17 05:59:38;;;;;;;45.83;21.88;;;;;;;9.81;100.00;103594.50;5106135;27;20102;-79
2023/12/17 06:02:07;;;;;;;39.10;20.30;;;;;;;9.90;100.00;103596.13;5095904;27;20028;-77
2023/12/17 06:04:33;;;;;;;47.13;23.23;;;;;;;9.91;100.00;103592.56;5102790;27;20077;-76
2023/12/17 06:09:50;;;;;;;54.10;23.30;;;;;;;9.98;100.00;103601.31;5091893;27;20108;-77
2023/12/17 06:12:16;;;;;;;48.65;23.23;;;;;;;9.96;100.00;103593.34;5102450;27;20576;-77
2023/12/17 06:14:44;;;;;;;63.42;25.73;;;;;;;9.85;100.00;103603.31;5096406;27;20514;-78
2023/12/17 06:17:11;;;;;;;51.30;24.17;;;;;;;9.86;100.00;103608.63;5107004;27;20059;-77
2023/12/17 06:19:37;;;;;;;49.95;25.45;;;;;;;9.80;100.00;103603.41;5098431;27;20036;-77
2023/12/17 06:22:11;;;;;;;56.30;26.77;;;;;;;9.88;100.00;103608.59;5098840;27;20035;-77
2023/12/17 06:24:37;;;;;;;55.28;25.20;;;;;;;9.80;100.00;103606.06;5104737;27;20042;-77
2023/12/17 06:27:13;;;;;;;43.53;23.55;;;;;;;9.82;100.00;103606.03;5094692;27;20036;-76
2023/12/17 06:29:38;;;;;;;49.58;23.80;;;;;;;9.85;100.00;103603.31;5107451;27;20081;-76
2023/12/17 06:32:13;;;;;;;42.80;23.40;;;;;;;9.87;100.00;103601.50;5104082;27;20031;-77
2023/12/17 06:34:42;;;;;;;42.95;22.88;;;;;;;9.90;100.00;103611.25;5095873;27;20036;-76
2023/12/17 06:37:07;;;;;;;45.38;23.35;;;;;;;9.88;100.00;103616.59;5095676;27;20093;-75
2023/12/17 06:39:36;;;;;;;45.90;23.40;;;;;;;9.94;100.00;103611.19;5106864;27;20109;-77
2023/12/17 06:42:11;;;;;;;46.17;23.80;;;;;;;9.94;100.00;103612.94;5098907;27;20028;-77
2023/12/17 06:44:37;;;;;;;48.28;24.85;;;;;;;9.95;100.00;103609.38;5097631;27;20047;-76
2023/12/17 06:47:12;;;;;;;49.03;25.50;;;;;;;9.98;100.00;103606.66;5076576;27;20032;-76
2023/12/17 06:49:38;;;;;;;50.47;25.40;;;;;;;9.93;100.00;103616.50;5081005;27;20058;-76
2023/12/17 06:52:07;;;;;;;47.03;25.15;;;;;;;9.85;100.00;103617.53;5095496;27;20052;-77
2023/12/17 06:54:39;;;;;;;48.15;24.20;;;;;;;9.89;100.00;103625.44;5107202;27;20036;-75
2023/12/17 06:57:08;;;;;;;48.03;24.23;;;;;;;9.81;100.00;103613.16;5099656;27;20071;-76
2023/12/17 06:59:36;;;;;;;49.88;24.95;;;;;;;9.88;100.00;103626.38;5103675;27;20089;-77
2023/12/17 07:02:08;;;;;;;49.67;23.83;;;;;;;9.88;100.00;103629.91;5090235;28;20036;-77
2023/12/17 07:04:34;;;;;;;50.15;25.73;;;;;;;9.89;100.00;103628.13;5094830;27;20032;-76
2023/12/17 07:07:04;;;;;;;46.22;23.63;;;;;;;9.93;100.00;103627.16;5109806;27;20036;-76
2023/12/17 07:09:33;;;;;;;46.30;23.17;;;;;;;9.78;100.00;103628.28;5097578;27;20047;-77
2023/12/17 07:11:58;;;;;;;50.38;24.67;;;;;;;9.75;100.00;103634.56;5109561;27;20088;-77
2023/12/17 07:14:24;;;;;;;49.42;24.10;;;;;;;9.73;100.00;103630.16;5110451;27;20100;-76
2023/12/17 07:16:51;;;;;;;51.88;24.98;;;;;;;9.74;100.00;103626.56;5113030;27;20035;-77
2023/12/17 07:19:19;;;;;;;49.92;26.00;;;;;;;9.81;100.00;103618.47;5113511;27;20111;-76
2023/12/17 07:21:51;;;;;;;49.03;25.80;;;;;;;9.85;100.00;103606.00;5093103;27;20093;-77
2023/12/17 07:24:19;;;;;;;49.38;26.05;;;;;;;9.78;100.00;103602.50;5107209;27;20044;-76
2023/12/17 07:26:45;;;;;;;53.78;25.58;;;;;;;9.82;100.00;103600.69;5110620;27;20036;-77
2023/12/17 07:29:11;;;;;;;47.70;25.00;;;;;;;9.74;100.00;103597.25;5107490;27;20032;-76
2023/12/17 07:31:37;;;;;;;51.70;25.63;;;;;;;9.81;100.00;103604.28;5107581;27;20028;-77
2023/12/17 07:34:05;;;;;;;48.65;24.92;;;;;;;9.85;100.00;103608.66;5095882;27;20067;-76
2023/12/17 07:36:37;;;;;;;50.65;23.33;;;;;;;9.72;100.00;103613.28;5106801;27;21053;-77
2023/12/17 07:39:12;;;;;;;50.45;25.55;;;;;;;9.75;100.00;103612.38;5099896;27;20047;-77
2023/12/17 07:41:40;;;;;;;50.53;24.88;;;;;;;9.80;100.00;103603.41;5096528;27;20063;-76
2023/12/17 07:44:17;;;;;;;51.88;25.17;;;;;;;9.83;100.00;103606.00;5077237;28;20028;-76
2023/12/17 07:46:43;;;;;;;53.13;25.52;;;;;;;9.84;100.00;103612.22;5103327;27;20055;-76
2023/12/17 07:49:09;;;;;;;58.33;25.20;;;;;;;9.57;100.00;103611.72;5091656;27;20113;-78
2023/12/17 07:51:38;;;;;;;53.03;25.23;;;;;;;9.76;100.00;103617.66;5098092;27;20853;-77
2023/12/17 07:54:07;;;;;;;56.13;25.98;;;;;;;9.75;100.00;103605.25;5116515;27;20047;-76
2023/12/17 07:56:33;;;;;;;61.28;26.70;;;;;;;9.82;100.00;103614.03;5097921;27;20174;-77
2023/12/17 07:58:59;;;;;;;54.92;27.60;;;;;;;9.68;100.00;103613.34;5095835;27;20082;-76
2023/12/17 08:01:28;;;;;;;65.15;28.30;;;;;;;9.64;100.00;103619.63;5080193;27;20032;-76
2023/12/17 08:03:55;;;;;;;73.45;30.13;;;;;;;9.63;100.00;103621.41;5114602;27;20032;-76
2023/12/17 08:06:23;;;;;;;62.15;28.33;;;;;;;9.58;100.00;103621.47;5082459;27;20035;-76
2023/12/17 08:08:59;;;;;;;60.38;27.73;;;;;;;9.68;100.00;103624.00;5077196;27;20044;-77
2023/12/17 08:11:25;;;;;;;61.78;28.63;;;;;;;9.66;100.00;103624.03;5109756;27;20089;-77
2023/12/17 08:13:53;;;;;;;58.45;27.70;;;;;;;9.61;100.00;103625.88;5102491;27;20028;-76
2023/12/17 08:16:22;;;;;;;59.75;25.73;;;;;;;9.68;100.00;103622.22;5113249;27;20040;-76
2023/12/17 08:18:54;;;;;;;60.17;27.42;;;;;;;9.62;100.00;103616.97;5105011;27;20036;-77
2023/12/17 08:21:19;;;;;;;60.65;27.75;;;;;;;9.64;100.00;103614.28;5111361;27;20031;-76
2023/12/17 08:23:45;;;;;;;61.28;26.63;;;;;;;9.62;100.00;103616.97;5100550;27;20032;-77
2023/12/17 08:26:11;;;;;;;57.88;26.23;;;;;;;9.72;100.00;103607.94;5073100;27;20085;-76
2023/12/17 08:28:36;;;;;;;57.78;25.45;;;;;;;9.65;100.00;103618.75;5094829;27;20028;-76
2023/12/17 08:31:09;;;;;;;57.35;24.70;;;;;;;9.62;100.00;103613.44;5089330;27;20105;-77
2023/12/17 08:33:38;;;;;;;54.80;24.02;;;;;;;9.58;100.00;103625.91;5109494;27;20039;-76
2023/12/17 08:36:08;;;;;;;52.33;25.05;;;;;;;9.60;100.00;103622.34;5091002;27;21162;-77
2023/12/17 08:38:36;;;;;;;59.70;25.88;;;;;;;9.64;100.00;103631.19;5105554;27;20491;-76
2023/12/17 08:41:04;;;;;;;52.58;24.13;;;;;;;9.68;100.00;103632.88;5090440;28;20040;-76
2023/12/17 08:43:42;;;;;;;58.55;24.88;;;;;;;9.62;100.00;103626.75;5093634;27;20039;-76
2023/12/17 08:46:11;;;;;;;56.15;26.70;;;;;;;9.62;100.00;103624.09;5111178;27;20074;-77
2023/12/17 08:48:37;;;;;;;62.85;26.80;;;;;;;9.53;100.00;103625.09;5098979;27;20035;-76
2023/12/17 08:51:10;;;;;;;59.28;25.40;;;;;;;9.48;100.00;103616.31;5115460;27;20036;-77
2023/12/17 08:53:36;;;;;;;55.85;23.88;;;;;;;9.46;100.00;103626.09;5094457;27;20057;-77
2023/12/17 08:56:11;;;;;;;53.17;23.95;;;;;;;9.55;100.00;103620.66;5113540;27;20936;-77
2023/12/17 08:58:39;;;;;;;49.97;23.48;;;;;;;9.56;100.00;103625.94;5106974;27;20027;-76
2023/12/17 09:01:12;;;;;;;48.80;21.98;;;;;;;9.71;100.00;103605.31;5075753;28;20024;-76
2023/12/17 09:03:37;;;;;;;47.33;21.95;;;;;;;9.73;100.00;103608.81;5109845;27;20032;-76
2023/12/17 09:06:07;;;;;;;37.65;19.45;;;;;;;9.61;100.00;103604.56;5094295;27;20036;-77
2023/12/17 09:08:42;;;;;;;39.90;18.98;;;;;;;9.65;100.00;103587.66;5093686;27;20044;-77
2023/12/17 09:11:11;;;;;;;35.95;17.85;;;;;;;9.67;100.00;103587.63;5096879;27;20031;-77
2023/12/17 09:13:37;;;;;;;30.67;16.67;;;;;;;9.71;100.00;103586.66;5114336;27;20032;-77
2023/12/17 09:16:07;;;;;;;32.03;17.70;;;;;;;9.69;100.00;103585.78;5096861;27;20040;-76
2023/12/17 09:18:41;;;;;;;30.92;17.77;;;;;;;9.74;100.00;103578.59;5111484;27;20036;-77
2023/12/17 09:21:08;;;;;;;31.05;17.45;;;;;;;9.71;100.00;103581.34;5086873;27;20032;-76
2023/12/17 09:23:34;;;;;;;31.27;17.70;;;;;;;9.62;100.00;103585.00;5108804;27;20043;-76
2023/12/17 09:26:09;;;;;;;35.25;18.48;;;;;;;9.74;100.00;103587.50;5089348;28;20110;-76
2023/12/17 09:28:38;;;;;;;35.08;18.73;;;;;;;9.74;100.00;103584.84;5092043;27;20067;-76
2023/12/17 09:31:26;;;;;;;36.05;18.35;;;;;;;9.61;100.00;103588.59;5107773;27;19920;-76
2023/12/17 09:33:51;;;;;;;30.77;17.95;;;;;;;9.55;100.00;103602.00;5110778;27;20057;-77
2023/12/17 09:36:17;;;;;;;36.13;19.52;;;;;;;9.59;100.00;103601.06;5099452;27;20062;-77
2023/12/17 09:38:43;;;;;;;29.15;17.70;;;;;;;9.50;100.00;103596.75;5106967;27;20040;-76
2023/12/17 09:41:12;;;;;;;32.33;16.75;;;;;;;9.49;100.00;103596.78;5109845;27;21326;-76
2023/12/17 09:43:38;;;;;;;28.77;16.92;;;;;;;9.69;100.00;103588.44;5103673;27;20035;-77
2023/12/17 09:46:07;;;;;;;28.02;14.93;;;;;;;9.63;100.00;103589.44;5090455;27;20039;-77
2023/12/17 09:48:38;;;;;;;31.35;18.08;;;;;;;9.55;100.00;103586.91;5097082;27;20036;-77
2023/12/17 09:51:10;;;;;;;29.65;16.92;;;;;;;9.48;100.00;103589.66;5090535;27;20043;-77
2023/12/17 09:53:37;;;;;;;32.13;17.15;;;;;;;9.57;100.00;103589.53;5092226;27;20048;-77
2023/12/17 09:56:07;;;;;;;28.50;17.13;;;;;;;9.46;100.00;103594.16;5108578;27;20082;-76
2023/12/17 09:58:33;;;;;;;30.15;15.32;;;;;;;9.60;100.00;103587.72;5078453;27;20117;-77
2023/12/17 10:01:08;;;;;;;25.77;15.15;;;;;;;9.63;100.00;103588.56;5107932;27;20032;-76
2023/12/17 10:03:34;;;;;;;28.52;14.85;;;;;;;9.66;100.00;103580.53;5095092;27;20080;-76
2023/12/17 10:06:11;;;;;;;27.75;16.00;;;;;;;9.82;100.00;103590.91;5092556;27;20035;-77
2023/12/17 10:08:43;;;;;;;28.95;16.92;;;;;;;9.75;100.00;103585.72;5107068;27;20034;-77
2023/12/17 10:11:09;;;;;;;30.38;16.17;;;;;;;9.73;100.00;103582.19;5100486;27;20098;-77
2023/12/17 10:13:36;;;;;;;33.80;17.27;;;;;;;9.84;100.00;103581.13;5108282;27;20806;-77
2023/12/17 10:16:11;;;;;;;29.15;17.23;;;;;;;9.77;100.00;103578.56;5109446;27;20127;-77
2023/12/17 10:18:37;;;;;;;29.88;15.98;;;;;;;9.85;100.00;103580.22;5111108;27;20066;-76
2023/12/17 10:21:08;;;;;;;25.77;15.40;;;;;;;9.75;100.00;103580.38;5110383;27;20031;-77
2023/12/17 10:23:50;;;;;;;28.77;16.05;;;;;;;9.64;100.00;103572.56;5097940;27;20031;-76
2023/12/17 10:26:19;;;;;;;30.02;17.48;;;;;;;9.60;100.00;103571.72;5088388;27;20044;-76
2023/12/17 10:28:48;;;;;;;26.95;14.15;;;;;;;9.44;100.00;103575.53;5112094;27;20046;-76
2023/12/17 10:31:16;;;;;;;28.23;14.57;;;;;;;9.50;100.00;103577.22;5092158;27;20036;-75
2023/12/17 10:33:57;;;;;;;23.55;14.32;;;;;;;9.47;100.00;103575.47;5090703;27;20039;-77
2023/12/17 10:36:24;;;;;;;25.85;15.10;;;;;;;9.46;100.00;103581.72;5113218;27;20717;-75
2023/12/17 10:38:50;;;;;;;25.40;14.52;;;;;;;9.61;100.00;103577.94;5089328;27;20104;-77
2023/12/17 10:41:17;;;;;;;23.58;13.98;;;;;;;9.51;100.00;103569.19;5095911;27;20142;-75
2023/12/17 10:43:44;;;;;;;23.00;13.90;;;;;;;9.38;100.00;103575.59;5073359;27;20112;-76
2023/12/17 10:46:14;;;;;;;26.52;13.48;;;;;;;9.46;100.00;103562.19;5109893;27;20714;-76
2023/12/17 10:48:39;;;;;;;24.00;13.38;;;;;;;9.55;100.00;103567.38;5097905;27;20054;-75
2023/12/17 10:51:09;;;;;;;22.55;12.88;;;;;;;9.45;100.00;103565.75;5109890;27;20086;-75
2023/12/17 10:53:36;;;;;;;22.55;12.88;;;;;;;9.53;100.00;103570.03;5104912;27;20151;-75
2023/12/17 10:56:13;;;;;;;27.80;14.85;;;;;;;9.45;100.00;103558.66;5096507;27;20031;-76
2023/12/17 10:58:40;;;;;;;23.85;14.05;;;;;;;9.50;100.00;103564.78;5070639;27;20063;-74
2023/12/17 11:01:06;;;;;;;27.13;14.05;;;;;;;9.45;100.00;103561.31;5102853;27;20057;-75
2023/12/17 11:03:39;;;;;;;26.45;14.80;;;;;;;9.39;100.00;103556.06;5112458;27;20062;-76
2023/12/17 11:06:09;;;;;;;27.42;15.48;;;;;;;9.27;100.00;103561.56;5109056;27;20031;-78
2023/12/17 11:08:38;;;;;;;27.02;15.07;;;;;;;9.30;100.00;103559.75;5091809;27;20134;-77
2023/12/17 11:11:06;;;;;;;28.50;15.52;;;;;;;9.17;100.00;103554.59;5099571;27;20048;-78
2023/12/17 11:13:36;;;;;;;31.35;17.35;;;;;;;9.17;100.00;103555.47;5107744;27;20036;-76
2023/12/17 11:16:20;;;;;;;30.83;17.45;;;;;;;9.23;100.00;103566.03;5106894;27;20040;-78
2023/12/17 11:18:50;;;;;;;29.55;16.83;;;;;;;9.28;100.00;103550.88;5111723;27;20040;-77
2023/12/17 11:21:22;;;;;;;28.77;16.33;;;;;;;9.08;100.00;103548.50;5096505;27;20119;-78